Time;durP1;ratioP1;P1;durP2;ratioP2;P2;SDS_P1;SDS_P2;PMS_P1;PMS_P2;Temp;Humidity;BMP_temperature;BMP_pressure;BME280_temperature;BME280_humidity;BME280_pressure;Samples;Min_cycle;Max_cycle;Signal;HPM_P1;HPM_P2
2023/09/21 00:03:30;;;;;;;2.63;1.48;;;;;;;19.14;87.02;99263.50;8306214;28;20050;-61
2023/09/21 00:07:31;;;;;;;2.50;1.23;;;;;;;19.26;86.47;99252.63;8305365;28;20562;-59
2023/09/21 00:11:31;;;;;;;2.80;1.50;;;;;;;19.19;86.64;99255.44;8308143;28;20112;-59
2023/09/21 00:15:32;;;;;;;3.45;1.60;;;;;;;19.08;87.33;99256.19;8305793;28;20041;-64
2023/09/21 00:19:32;;;;;;;4.43;1.45;;;;;;;19.05;87.34;99250.31;8307653;28;20045;-64
2023/09/21 00:23:33;;;;;;;3.75;1.40;;;;;;;18.93;87.79;99247.50;8322798;28;20052;-59
2023/09/21 00:27:33;;;;;;;2.10;1.23;;;;;;;18.89;88.00;99238.06;8304811;28;20048;-58
2023/09/21 00:31:35;;;;;;;3.67;1.50;;;;;;;18.88;88.55;99232.81;8303552;28;20071;-59
2023/09/21 00:35:39;;;;;;;5.47;1.50;;;;;;;18.82;88.35;99226.31;8306346;28;20037;-59
2023/09/21 00:39:39;;;;;;;1.88;1.15;;;;;;;18.86;88.64;99222.06;8277898;28;20294;-62
2023/09/21 00:43:41;;;;;;;3.58;1.55;;;;;;;18.72;89.37;99209.56;8295323;28;20045;-59
2023/09/21 00:47:46;;;;;;;3.88;1.67;;;;;;;18.52;90.47;99192.47;8311172;28;20041;-63
2023/09/21 00:51:47;;;;;;;2.28;1.20;;;;;;;18.53;90.42;99191.41;8293808;28;20519;-62
2023/09/21 00:55:51;;;;;;;2.15;1.30;;;;;;;18.36;90.94;99184.78;8256112;28;20427;-63
2023/09/21 00:59:52;;;;;;;3.10;1.65;;;;;;;18.36;90.97;99182.03;8254957;28;20132;-61
2023/09/21 01:03:54;;;;;;;4.32;1.90;;;;;;;18.47;90.57;99183.25;8256407;28;20049;-61
2023/09/21 01:07:56;;;;;;;4.10;1.70;;;;;;;18.45;90.45;99179.91;8251398;28;20232;-61
2023/09/21 01:11:59;;;;;;;3.08;1.42;;;;;;;18.49;90.38;99171.03;8257194;28;20639;-61
2023/09/21 01:16:02;;;;;;;2.47;1.42;;;;;;;18.57;90.05;99176.19;8255563;28;20196;-62
2023/09/21 01:20:18;;;;;;;2.00;1.20;;;;;;;18.53;89.25;99166.78;8271476;28;20037;-59
2023/09/21 01:24:22;;;;;;;2.40;1.35;;;;;;;18.77;87.66;99163.19;8304151;28;20190;-64
2023/09/21 01:28:23;;;;;;;;;;;;;;;18.93;86.67;99164.47;8310081;28;20045;-64
2023/09/21 01:32:23;;;;;;;3.10;1.30;;;;;;;18.91;86.37;99159.22;8307549;28;19918;-64
2023/09/21 01:36:24;;;;;;;2.47;1.33;;;;;;;19.02;85.85;99154.91;8312302;28;20194;-58
2023/09/21 01:40:25;;;;;;;2.22;1.08;;;;;;;19.04;85.44;99147.28;8310061;28;20038;-58
2023/09/21 01:44:25;;;;;;;2.47;1.50;;;;;;;19.07;85.46;99147.69;8310427;28;20041;-59
2023/09/21 01:48:27;;;;;;;2.95;1.27;;;;;;;19.06;85.20;99135.03;8310759;28;20038;-59
2023/09/21 01:52:27;;;;;;;1.77;1.10;;;;;;;19.11;85.03;99134.34;8308672;28;20407;-58
2023/09/21 01:56:28;;;;;;;1.88;1.10;;;;;;;19.12;84.89;99125.09;8308844;28;20124;-64
2023/09/21 02:00:29;;;;;;;3.17;1.50;;;;;;;19.25;84.40;99133.94;8308171;28;20041;-64
2023/09/21 02:04:29;;;;;;;3.10;1.77;;;;;;;19.35;83.76;99117.84;8312232;28;20078;-63
2023/09/21 02:08:31;;;;;;;2.10;1.20;;;;;;;19.36;83.50;99119.53;8307281;28;20120;-60
2023/09/21 02:12:37;;;;;;;4.65;1.60;;;;;;;19.32;83.71;99117.47;8311488;28;20438;-59
2023/09/21 02:16:38;;;;;;;3.03;1.50;;;;;;;19.38;83.14;99103.69;8308804;28;20044;-59
2023/09/21 02:20:40;;;;;;;2.45;1.20;;;;;;;19.45;83.00;99096.22;8310145;28;20041;-59
2023/09/21 02:24:41;;;;;;;2.45;1.08;;;;;;;19.42;83.04;99085.69;8309354;28;20038;-60
2023/09/21 02:28:42;;;;;;;3.72;1.23;;;;;;;19.53;82.13;99092.31;8266502;28;20297;-61
2023/09/21 02:32:45;;;;;;;3.30;1.45;;;;;;;19.64;81.49;99082.44;8277583;28;20502;-59
2023/09/21 02:36:46;;;;;;;2.22;1.13;;;;;;;19.74;80.76;99061.63;8309280;28;20034;-60
2023/09/21 02:40:47;;;;;;;1.88;1.10;;;;;;;19.83;80.24;99081.31;8309471;28;20044;-59
2023/09/21 02:44:48;;;;;;;1.35;0.93;;;;;;;19.83;80.07;99075.81;8257802;28;20046;-62
2023/09/21 02:48:49;;;;;;;2.05;1.38;;;;;;;19.91;79.59;99061.78;8300782;28;20042;-64
2023/09/21 02:52:54;;;;;;;2.22;1.10;;;;;;;20.00;79.03;99058.44;8292251;28;20049;-64
2023/09/21 02:56:56;;;;;;;3.42;1.15;;;;;;;20.08;78.71;99044.38;8278628;28;20353;-64
2023/09/21 03:00:57;;;;;;;3.08;1.10;;;;;;;20.19;78.27;99049.06;8301739;28;20356;-63
2023/09/21 03:05:00;;;;;;;4.63;1.30;;;;;;;20.13;78.51;99044.50;8305788;28;20112;-66
2023/09/21 03:09:00;;;;;;;2.35;1.10;;;;;;;20.15;78.27;99036.03;8277984;28;20048;-63
2023/09/21 03:13:02;;;;;;;3.95;1.20;;;;;;;20.26;78.08;99037.97;8275076;28;20038;-62
2023/09/21 03:17:05;;;;;;;4.03;1.48;;;;;;;20.21;78.00;99035.94;8265034;28;20049;-62
2023/09/21 03:21:14;;;;;;;4.38;1.48;;;;;;;20.11;78.54;99037.56;8274050;28;20503;-62
2023/09/21 03:25:16;;;;;;;1.95;1.08;;;;;;;20.11;78.36;99027.44;8301158;28;20561;-62
2023/09/21 03:29:17;;;;;;;2.08;1.50;;;;;;;19.93;79.23;99021.22;8307335;28;20037;-62
2023/09/21 03:33:20;;;;;;;2.88;1.33;;;;;;;19.96;79.14;99020.75;8276883;28;20488;-61
2023/09/21 03:37:21;;;;;;;3.25;1.52;;;;;;;20.06;78.39;99005.34;8252575;28;20041;-61
2023/09/21 03:41:21;;;;;;;4.03;1.67;;;;;;;19.96;78.98;99004.28;8300175;28;20034;-63
2023/09/21 03:45:25;;;;;;;2.30;1.45;;;;;;;19.81;79.75;99003.91;8265243;28;20033;-62
2023/09/21 03:49:26;;;;;;;3.22;1.65;;;;;;;19.81;79.87;98979.22;8248476;28;20301;-61
2023/09/21 03:53:27;;;;;;;4.95;1.20;;;;;;;19.83;79.92;98988.91;8287282;28;20045;-62
2023/09/21 03:57:29;;;;;;;2.63;1.35;;;;;;;19.77;80.15;98980.78;8306881;28;20510;-63
2023/09/21 04:01:30;;;;;;;3.80;1.33;;;;;;;19.81;80.26;98976.47;8283913;28;20451;-62
2023/09/21 04:05:31;;;;;;;3.25;1.45;;;;;;;19.67;80.95;98972.31;8282476;28;20038;-63
2023/09/21 04:09:31;;;;;;;5.40;2.47;;;;;;;19.52;81.62;98976.31;8307981;28;20129;-64
2023/09/21 04:13:32;;;;;;;6.70;1.35;;;;;;;19.48;81.54;98963.31;8308030;28;20033;-64
2023/09/21 04:17:33;;;;;;;3.20;1.70;;;;;;;19.52;81.82;98959.88;8298362;28;20539;-64
2023/09/21 04:21:33;;;;;;;3.17;1.40;;;;;;;19.61;81.36;98960.34;8314248;28;20040;-64
2023/09/21 04:25:34;;;;;;;3.53;1.50;;;;;;;19.39;82.24;98951.88;8312919;28;20029;-64
2023/09/21 04:29:34;;;;;;;2.72;1.50;;;;;;;19.48;81.91;98965.25;8310195;28;20033;-63
2023/09/21 04:33:35;;;;;;;1.60;1.17;;;;;;;19.55;81.64;98957.75;8309003;28;20045;-64
2023/09/21 04:37:38;;;;;;;2.47;1.58;;;;;;;19.42;82.35;98945.91;8310906;28;20187;-64
2023/09/21 04:41:39;;;;;;;3.78;2.03;;;;;;;19.36;82.53;98935.03;8300092;28;20049;-62
2023/09/21 04:45:40;;;;;;;2.65;1.58;;;;;;;19.38;82.73;98946.63;8266149;28;20495;-64
2023/09/21 04:49:40;;;;;;;4.03;1.83;;;;;;;19.46;82.58;98949.84;8313344;28;20041;-64
2023/09/21 04:53:42;;;;;;;3.85;1.65;;;;;;;19.52;82.35;98947.25;8307954;28;20073;-64
2023/09/21 04:57:44;;;;;;;5.30;1.98;;;;;;;19.42;83.00;98948.66;8310282;28;20116;-64
2023/09/21 05:01:47;;;;;;;4.57;1.40;;;;;;;19.46;82.89;98955.31;8308303;28;20046;-65
2023/09/21 05:05:49;;;;;;;2.88;1.52;;;;;;;19.55;82.59;98958.59;8293683;28;20037;-65
2023/09/21 05:09:49;;;;;;;2.28;1.50;;;;;;;19.65;82.45;98957.97;8313695;28;20478;-59
2023/09/21 05:13:50;;;;;;;5.70;1.50;;;;;;;19.63;82.56;98954.63;8309830;28;20037;-59
2023/09/21 05:17:51;;;;;;;4.47;1.77;;;;;;;19.75;82.54;98950.00;8311125;28;20034;-59
2023/09/21 05:21:56;;;;;;;3.40;1.30;;;;;;;19.90;82.24;98955.84;8310362;28;20088;-59
2023/09/21 05:25:57;;;;;;;4.75;1.80;;;;;;;19.84;82.52;98962.28;8307301;28;20049;-59
2023/09/21 05:29:59;;;;;;;5.35;1.80;;;;;;;19.87;82.77;98967.28;8306121;28;20045;-60
2023/09/21 05:34:02;;;;;;;6.35;2.30;;;;;;;19.92;82.91;98960.03;8312278;28;20069;-61
2023/09/21 05:38:05;;;;;;;7.57;1.80;;;;;;;20.19;82.03;98954.94;8309944;28;20042;-64
2023/09/21 05:42:05;;;;;;;7.82;1.80;;;;;;;20.21;82.05;98966.47;8308901;28;20041;-63
2023/09/21 05:46:06;;;;;;;2.42;1.40;;;;;;;20.25;82.31;98962.22;8309358;28;20124;-63
2023/09/21 05:50:08;;;;;;;3.15;1.60;;;;;;;20.24;82.14;98955.88;8309442;28;20514;-63
2023/09/21 05:54:09;;;;;;;4.60;1.70;;;;;;;20.29;82.30;98966.13;8311780;28;20049;-62
2023/09/21 05:58:10;;;;;;;4.00;1.27;;;;;;;20.50;81.82;98969.09;8299076;28;20125;-62
2023/09/21 06:02:13;;;;;;;2.47;1.48;;;;;;;20.64;81.55;98950.41;8305124;28;20046;-63
2023/09/21 06:06:14;;;;;;;3.43;1.47;;;;;;;20.85;80.85;98955.25;8300991;28;20042;-63
2023/09/21 06:10:15;;;;;;;4.65;1.42;;;;;;;21.02;80.46;98967.16;8306968;28;20052;-63
2023/09/21 06:14:17;;;;;;;2.10;1.27;;;;;;;21.19;79.85;98935.03;8306662;28;20419;-63
2023/09/21 06:18:18;;;;;;;2.28;1.40;;;;;;;21.31;79.60;98936.66;8306729;28;20135;-63
2023/09/21 06:22:18;;;;;;;4.95;1.83;;;;;;;21.35;79.15;98945.25;8313813;28;20037;-64
2023/09/21 06:26:19;;;;;;;3.03;1.65;;;;;;;21.54;78.62;98943.94;8318698;28;20081;-62
2023/09/21 06:30:22;;;;;;;3.97;1.30;;;;;;;21.78;77.98;98961.13;8303743;28;20069;-62
2023/09/21 06:34:24;;;;;;;3.17;1.38;;;;;;;21.74;77.68;98949.78;8307740;28;20120;-62
2023/09/21 06:38:24;;;;;;;4.65;1.83;;;;;;;21.50;78.81;98942.75;8304553;28;20046;-62
2023/09/21 06:42:25;;;;;;;4.43;1.38;;;;;;;21.49;79.45;98941.09;8306871;28;20112;-62
2023/09/21 06:46:26;;;;;;;3.17;1.40;;;;;;;21.58;79.07;98936.84;8305618;28;20044;-57
2023/09/21 06:50:27;;;;;;;5.07;1.60;;;;;;;21.64;79.76;98943.25;8307192;28;20116;-58
2023/09/21 06:54:29;;;;;;;3.78;1.15;;;;;;;21.87;79.31;98935.72;8304385;28;20050;-58
2023/09/21 06:58:30;;;;;;;2.72;1.55;;;;;;;22.07;78.89;98938.75;8304334;28;20037;-59
2023/09/21 07:02:31;;;;;;;5.80;1.40;;;;;;;22.10;79.10;98904.38;8303994;28;20227;-57
2023/09/21 07:06:31;;;;;;;4.82;1.27;;;;;;;22.25;78.48;98932.13;8302981;28;20037;-62
2023/09/21 07:10:32;;;;;;;4.35;1.58;;;;;;;22.28;78.69;98940.72;8307022;28;20121;-61
2023/09/21 07:14:35;;;;;;;3.53;1.48;;;;;;;22.35;77.93;98943.31;8304654;28;20041;-62
2023/09/21 07:18:37;;;;;;;2.75;1.50;;;;;;;22.33;78.21;98943.56;8305433;28;20053;-57
2023/09/21 07:22:37;;;;;;;2.55;1.30;;;;;;;22.52;77.63;98942.19;8306004;28;20128;-58
2023/09/21 07:26:38;;;;;;;5.47;1.48;;;;;;;22.57;77.76;98922.94;8303185;28;20043;-57
2023/09/21 07:30:39;;;;;;;2.47;1.42;;;;;;;22.69;77.49;98931.91;8302635;28;20044;-57
2023/09/21 07:34:39;;;;;;;1.92;1.40;;;;;;;22.66;77.86;98929.69;8304786;28;20513;-57
2023/09/21 07:38:40;;;;;;;2.90;1.58;;;;;;;22.63;78.05;98926.63;8303438;28;20125;-58
2023/09/21 07:42:43;;;;;;;5.00;1.80;;;;;;;22.70;78.06;98925.34;8305956;28;20044;-57
2023/09/21 07:46:44;;;;;;;3.35;1.30;;;;;;;22.82;77.97;98934.31;8303176;28;20045;-57
2023/09/21 07:50:46;;;;;;;2.80;1.27;;;;;;;22.68;78.36;98938.53;8304885;28;20125;-57
2023/09/21 07:54:47;;;;;;;3.28;1.77;;;;;;;22.75;78.12;98936.41;8304835;28;20160;-57
2023/09/21 07:58:47;;;;;;;3.47;1.38;;;;;;;22.72;78.50;98928.66;8301681;28;20515;-57
2023/09/21 08:02:48;;;;;;;4.82;2.35;;;;;;;22.69;79.18;98940.19;8302551;28;20069;-57
2023/09/21 08:06:49;;;;;;;1.98;1.73;;;;;;;22.84;78.32;98936.81;8301841;28;20084;-57
2023/09/21 08:10:51;;;;;;;3.47;1.60;;;;;;;22.92;78.48;98942.69;8304787;28;20514;-59
2023/09/21 08:14:51;;;;;;;6.63;1.95;;;;;;;23.15;77.88;98953.41;8303085;28;20125;-58
2023/09/21 08:18:52;;;;;;;2.83;1.35;;;;;;;23.29;77.37;98953.03;8306238;28;20034;-57
2023/09/21 08:22:53;;;;;;;2.45;1.77;;;;;;;23.41;77.31;98946.25;8302331;28;20044;-59
2023/09/21 08:26:54;;;;;;;3.72;1.70;;;;;;;23.65;76.24;98949.50;8305620;28;20029;-59
2023/09/21 08:30:57;;;;;;;4.22;1.85;;;;;;;23.91;75.17;98962.44;8303615;28;20042;-58
2023/09/21 08:34:57;;;;;;;4.40;1.67;;;;;;;23.98;75.67;98957.53;8299980;28;20038;-57
2023/09/21 08:39:02;;;;;;;6.35;2.08;;;;;;;24.05;74.98;98960.91;8305712;28;20517;-62
2023/09/21 08:43:04;;;;;;;5.15;2.28;;;;;;;23.86;75.36;98954.94;8305347;28;20046;-62
2023/09/21 08:47:11;;;;;;;2.20;1.80;;;;;;;23.86;74.76;98960.47;8303571;28;20117;-62
2023/09/21 08:51:15;;;;;;;4.57;1.55;;;;;;;23.90;75.06;98971.78;8306065;28;20033;-57
2023/09/21 08:55:16;;;;;;;7.80;1.80;;;;;;;23.55;76.72;98966.81;8303231;28;20099;-57
2023/09/21 08:59:20;;;;;;;6.68;2.10;;;;;;;23.59;77.21;98979.00;8303207;28;20077;-58
2023/09/21 09:03:21;;;;;;;2.37;1.57;;;;;;;23.48;76.91;98981.91;8307451;28;20052;-59
2023/09/21 09:07:22;;;;;;;4.68;1.60;;;;;;;23.54;76.92;98989.16;8307452;28;20150;-58
2023/09/21 09:11:40;;;;;;;6.65;2.40;;;;;;;23.65;75.83;98990.91;8309554;28;20038;-63
2023/09/21 09:15:43;;;;;;;4.13;1.58;;;;;;;23.81;75.96;98981.66;8305338;28;20414;-62
2023/09/21 09:19:46;;;;;;;3.92;1.20;;;;;;;23.94;75.54;98978.47;8307853;28;20118;-63
2023/09/21 09:23:47;;;;;;;3.45;1.70;;;;;;;23.85;75.85;98974.53;8305986;28;20073;-62
2023/09/21 09:27:47;;;;;;;4.20;1.73;;;;;;;23.88;76.02;98969.28;8304298;28;20048;-63
2023/09/21 09:31:48;;;;;;;2.85;1.63;;;;;;;23.86;75.59;98973.44;8307808;28;20513;-64
2023/09/21 09:35:49;;;;;;;5.47;1.73;;;;;;;23.88;75.95;98976.78;8305872;28;20977;-63
2023/09/21 09:39:49;;;;;;;3.53;1.60;;;;;;;23.82;75.46;98969.53;8307915;28;20064;-63
2023/09/21 09:43:51;;;;;;;4.22;2.15;;;;;;;23.79;76.37;98964.53;8304647;28;20286;-63
2023/09/21 09:47:57;;;;;;;4.68;1.50;;;;;;;23.87;76.10;98964.03;8306531;28;20121;-63
2023/09/21 09:52:00;;;;;;;4.75;1.40;;;;;;;24.03;74.97;98965.88;8305326;28;20499;-62
2023/09/21 09:56:08;;;;;;;3.08;1.25;;;;;;;24.26;72.86;98963.56;8304646;28;20037;-63
2023/09/21 10:00:15;;;;;;;3.50;1.20;;;;;;;24.18;72.59;98963.22;8303705;28;20037;-63
2023/09/21 10:04:18;;;;;;;2.20;1.20;;;;;;;24.12;72.42;98956.81;8304918;28;20059;-62
2023/09/21 10:08:21;;;;;;;4.10;1.67;;;;;;;24.05;72.89;98947.94;8303197;28;20563;-63
2023/09/21 10:12:25;;;;;;;4.10;1.23;;;;;;;24.13;72.29;98935.56;8306670;28;20052;-60
2023/09/21 10:16:27;;;;;;;4.15;1.38;;;;;;;24.21;72.39;98946.13;8299966;28;20049;-59
2023/09/21 10:20:32;;;;;;;4.18;1.20;;;;;;;24.14;72.72;98937.22;8305678;28;20046;-59
2023/09/21 10:24:32;;;;;;;2.70;1.10;;;;;;;24.00;72.86;98944.31;8304125;28;20124;-60
2023/09/21 10:28:34;;;;;;;2.45;1.27;;;;;;;24.03;73.65;98925.28;8302868;28;20045;-59
2023/09/21 10:32:50;;;;;;;1.85;1.30;;;;;;;24.12;72.55;98936.66;8303147;28;20034;-63
2023/09/21 10:36:56;;;;;;;4.55;2.03;;;;;;;24.10;72.83;98927.81;8301849;28;20517;-63
2023/09/21 10:40:57;;;;;;;4.88;1.50;;;;;;;23.96;74.14;98921.06;8305252;28;20073;-62
2023/09/21 10:45:00;;;;;;;3.10;1.10;;;;;;;23.95;74.01;98916.66;8305220;28;20071;-62
2023/09/21 10:53:17;;;;;;;4.32;1.50;;;;;;;24.01;73.93;98899.03;8343311;27;20776;-63
2023/09/21 10:57:24;;;;;;;3.63;1.75;;;;;;;23.95;74.47;98908.38;8347136;28;20059;-63
2023/09/21 11:01:24;;;;;;;1.75;1.17;;;;;;;23.98;74.60;98897.66;8344174;28;20037;-58
2023/09/21 11:05:25;;;;;;;2.60;1.55;;;;;;;24.03;74.51;98883.03;8348796;28;20029;-59
2023/09/21 11:09:26;;;;;;;3.35;1.60;;;;;;;23.90;75.48;98877.94;8349218;28;20083;-59
2023/09/21 11:13:29;;;;;;;3.97;1.65;;;;;;;23.90;75.63;98878.78;8349147;28;20037;-59
2023/09/21 11:17:30;;;;;;;2.90;1.45;;;;;;;23.93;75.44;98869.97;8344661;28;20045;-61
2023/09/21 11:21:31;;;;;;;4.03;1.40;;;;;;;23.91;75.75;98871.34;8349227;28;20083;-62
2023/09/21 11:25:32;;;;;;;3.03;1.25;;;;;;;23.99;75.62;98870.84;8347729;28;20499;-63
2023/09/21 11:29:34;;;;;;;5.22;1.42;;;;;;;23.96;75.85;98877.75;8347981;28;20520;-62
2023/09/21 11:33:35;;;;;;;3.33;1.42;;;;;;;23.94;75.77;98857.81;8346764;28;20310;-63
2023/09/21 11:37:35;;;;;;;2.42;1.45;;;;;;;24.00;75.76;98850.44;8347285;28;20083;-63
2023/09/21 11:41:37;;;;;;;3.55;1.38;;;;;;;23.97;75.86;98839.94;8343580;28;20037;-63
2023/09/21 11:45:37;;;;;;;2.85;1.20;;;;;;;23.90;76.27;98834.59;8347526;28;20041;-62
2023/09/21 11:49:40;;;;;;;5.93;1.30;;;;;;;23.94;76.44;98818.34;8347028;28;20036;-63
2023/09/21 11:53:40;;;;;;;1.88;1.10;;;;;;;23.93;76.33;98814.75;8335406;28;20043;-62
2023/09/21 11:57:42;;;;;;;3.33;1.25;;;;;;;23.90;76.29;98815.28;8346363;28;20037;-62
2023/09/21 12:01:45;;;;;;;5.65;1.75;;;;;;;23.79;77.64;98816.34;8340326;28;20352;-62
2023/09/21 12:05:45;;;;;;;6.05;1.30;;;;;;;23.79;78.53;98821.00;8322665;28;20442;-62
2023/09/21 12:09:45;;;;;;;3.05;1.60;;;;;;;23.69;79.43;98812.69;8323297;28;20045;-62
2023/09/21 12:13:46;;;;;;;5.40;1.55;;;;;;;23.58;79.66;98797.16;8322579;28;20458;-62
2023/09/21 12:17:47;;;;;;;2.38;1.38;;;;;;;23.58;80.50;98797.16;8324541;28;20034;-63
2023/09/21 12:21:48;;;;;;;3.50;1.30;;;;;;;23.55;80.56;98775.59;8324763;28;20049;-63
2023/09/21 12:25:48;;;;;;;4.22;1.30;;;;;;;23.60;80.89;98783.91;8324549;28;20037;-62
2023/09/21 12:29:52;;;;;;;2.72;1.42;;;;;;;23.73;79.88;98775.16;8324321;28;20157;-63
2023/09/21 12:33:52;;;;;;;3.90;1.67;;;;;;;23.67;80.64;98759.69;8323894;28;20052;-63
2023/09/21 12:37:53;;;;;;;3.00;1.30;;;;;;;23.65;80.93;98748.06;8323518;28;20284;-63
2023/09/21 12:41:55;;;;;;;3.42;1.40;;;;;;;23.62;81.59;98748.59;8323921;28;20034;-62
2023/09/21 12:45:56;;;;;;;5.30;1.27;;;;;;;23.61;81.12;98736.75;8323594;28;20037;-62
2023/09/21 12:49:56;;;;;;;4.43;1.90;;;;;;;23.68;80.91;98730.97;8323075;28;20132;-63
2023/09/21 12:53:57;;;;;;;5.18;1.45;;;;;;;23.72;80.67;98732.13;8323684;28;20132;-60
2023/09/21 12:57:58;;;;;;;3.42;1.42;;;;;;;23.85;79.52;98739.91;8323031;28;20129;-59
2023/09/21 13:01:59;;;;;;;1.75;1.48;;;;;;;24.03;78.53;98722.88;8323670;28;20033;-62
2023/09/21 13:06:01;;;;;;;3.90;1.40;;;;;;;24.07;77.92;98726.75;8322151;28;20553;-62
2023/09/21 13:10:02;;;;;;;2.28;1.38;;;;;;;24.04;78.32;98713.50;8323483;28;20037;-62
2023/09/21 13:14:03;;;;;;;4.80;2.15;;;;;;;23.91;78.35;98697.41;8322101;28;20045;-58
2023/09/21 13:18:04;;;;;;;9.18;1.60;;;;;;;23.96;78.42;98697.44;8322353;28;20483;-58
2023/09/21 13:22:04;;;;;;;4.40;2.20;;;;;;;23.85;78.73;98681.94;8322626;28;20440;-59
2023/09/21 13:26:06;;;;;;;6.43;1.52;;;;;;;23.99;78.55;98683.09;8322436;28;20043;-60
2023/09/21 13:30:09;;;;;;;3.78;1.85;;;;;;;23.98;79.51;98675.94;8322345;28;20041;-58
2023/09/21 13:34:10;;;;;;;4.18;1.80;;;;;;;24.01;79.21;98673.47;8320718;28;20183;-61
2023/09/21 13:38:10;;;;;;;5.00;1.65;;;;;;;24.00;80.13;98670.97;8320789;28;20033;-59
2023/09/21 13:42:11;;;;;;;2.80;1.83;;;;;;;24.09;79.95;98666.59;8322251;28;20045;-59
2023/09/21 13:46:13;;;;;;;5.32;1.90;;;;;;;24.27;79.21;98668.81;8321495;28;20036;-58
2023/09/21 13:50:13;;;;;;;3.88;1.38;;;;;;;24.07;79.00;98658.56;8321657;28;20049;-58
2023/09/21 13:54:14;;;;;;;3.95;1.40;;;;;;;24.22;78.92;98649.47;8321574;28;20073;-58
2023/09/21 13:58:14;;;;;;;6.85;2.00;;;;;;;23.63;84.87;98667.50;8321149;28;20041;-58
2023/09/21 14:02:15;;;;;;;3.83;1.58;;;;;;;22.87;91.86;98667.00;8321184;28;20624;-58
2023/09/21 14:06:15;;;;;;;4.93;2.03;;;;;;;22.25;100.00;98670.56;8320569;28;20584;-58
2023/09/21 14:10:16;;;;;;;9.35;2.13;;;;;;;21.93;100.00;98678.78;8321157;28;20045;-58
2023/09/21 14:14:16;;;;;;;7.38;2.25;;;;;;;21.89;100.00;98680.38;8320971;28;20184;-63
2023/09/21 14:18:17;;;;;;;7.03;2.67;;;;;;;22.03;100.00;98684.38;8321187;28;20112;-64
2023/09/21 14:22:17;;;;;;;12.52;2.97;;;;;;;21.88;100.00;98711.72;8320530;28;20415;-63
2023/09/21 14:26:19;;;;;;;6.57;2.80;;;;;;;21.53;100.00;98696.66;8317324;28;20025;-63
2023/09/21 14:30:19;;;;;;;6.72;2.63;;;;;;;21.18;100.00;98697.00;8310290;28;20537;-64
2023/09/21 14:34:20;;;;;;;8.68;3.20;;;;;;;21.11;100.00;98696.34;8320673;28;20401;-64
2023/09/21 14:38:21;;;;;;;9.48;3.38;;;;;;;21.00;100.00;98705.53;8320513;28;20041;-64
2023/09/21 14:42:21;;;;;;;9.90;3.55;;;;;;;21.04;100.00;98709.41;8320326;28;20041;-63
2023/09/21 14:46:22;;;;;;;5.38;3.22;;;;;;;20.91;100.00;98696.00;8319241;28;20129;-63
2023/09/21 14:50:23;;;;;;;5.75;2.95;;;;;;;20.92;100.00;98686.69;8316124;28;20413;-63
2023/09/21 14:54:23;;;;;;;7.13;3.13;;;;;;;20.79;100.00;98670.53;8315474;28;20049;-62
2023/09/21 14:58:32;;;;;;;10.55;4.22;;;;;;;20.67;100.00;98673.38;8315702;28;20034;-63
2023/09/21 15:02:36;;;;;;;12.50;4.03;;;;;;;20.75;100.00;98666.63;8315033;28;20562;-63
2023/09/21 15:06:37;;;;;;;10.07;3.90;;;;;;;20.66;100.00;98659.91;8317155;28;20037;-63
2023/09/21 15:10:37;;;;;;;9.38;4.35;;;;;;;20.77;100.00;98648.00;8316197;28;20443;-63
2023/09/21 15:14:38;;;;;;;7.13;4.00;;;;;;;20.81;100.00;98635.41;8317411;28;20042;-64
2023/09/21 15:18:39;;;;;;;9.55;4.00;;;;;;;20.80;100.00;98634.59;8317708;28;20045;-64
2023/09/21 15:22:40;;;;;;;7.50;3.40;;;;;;;20.87;100.00;98639.91;8317423;28;20037;-64
2023/09/21 15:26:40;;;;;;;9.60;3.25;;;;;;;20.66;100.00;98643.44;8315716;28;20045;-64
2023/09/21 15:30:41;;;;;;;8.93;2.97;;;;;;;20.53;100.00;98628.13;8316862;28;20104;-63
2023/09/21 15:34:42;;;;;;;5.03;2.50;;;;;;;20.49;100.00;98637.13;8316509;28;20313;-59
2023/09/21 15:38:42;;;;;;;5.25;2.33;;;;;;;20.42;100.00;98630.94;8320866;28;20045;-59
2023/09/21 15:42:43;;;;;;;6.28;2.47;;;;;;;20.29;100.00;98626.63;8323534;28;20551;-63
2023/09/21 15:46:43;;;;;;;5.55;2.13;;;;;;;20.28;100.00;98619.47;8322980;28;20050;-64
2023/09/21 15:50:43;;;;;;;5.28;2.45;;;;;;;20.36;100.00;98623.72;8323589;28;20465;-63
2023/09/21 15:54:44;;;;;;;6.03;2.10;;;;;;;20.42;100.00;98617.22;8322462;28;20104;-60
2023/09/21 15:58:44;;;;;;;4.13;2.10;;;;;;;20.44;100.00;98604.09;8323231;28;20045;-59
2023/09/21 16:02:46;;;;;;;6.22;2.10;;;;;;;20.43;100.00;98607.94;8322570;28;20041;-61
2023/09/21 16:06:47;;;;;;;3.88;1.63;;;;;;;20.29;100.00;98601.09;8321876;28;20621;-60
2023/09/21 16:10:47;;;;;;;2.83;1.33;;;;;;;20.33;100.00;98580.28;8319633;28;20365;-61
2023/09/21 16:14:49;;;;;;;2.90;2.00;;;;;;;20.29;100.00;98581.88;8320403;28;20049;-62
2023/09/21 16:18:51;;;;;;;9.05;1.65;;;;;;;20.19;100.00;98573.50;8320624;28;20250;-62
2023/09/21 16:22:52;;;;;;;4.28;1.65;;;;;;;20.22;100.00;98570.25;8320204;28;20037;-63
2023/09/21 16:26:56;;;;;;;4.18;1.73;;;;;;;20.19;100.00;98578.97;8320802;28;20502;-63
2023/09/21 16:30:58;;;;;;;3.22;1.70;;;;;;;20.16;100.00;98584.97;8320782;28;20048;-63
2023/09/21 16:34:59;;;;;;;2.35;1.58;;;;;;;20.12;100.00;98594.72;8320241;28;20507;-63
2023/09/21 16:38:59;;;;;;;6.10;1.75;;;;;;;20.12;100.00;98589.22;8320034;28;21041;-63
2023/09/21 16:43:00;;;;;;;2.95;1.30;;;;;;;20.15;100.00;98594.25;8319537;28;20050;-61
2023/09/21 16:47:00;;;;;;;2.92;1.63;;;;;;;20.14;100.00;98611.81;8319235;28;20040;-60
2023/09/21 16:51:01;;;;;;;5.05;1.58;;;;;;;20.24;100.00;98667.69;8319159;28;20554;-61
2023/09/21 16:55:04;;;;;;;2.30;1.48;;;;;;;20.15;100.00;98673.81;8319189;28;20042;-60
2023/09/21 16:59:04;;;;;;;4.78;0.90;;;;;;;19.79;100.00;98680.53;8319489;28;20057;-59
2023/09/21 17:03:05;;;;;;;0.88;0.40;;;;;;;19.33;100.00;98684.25;8318338;28;20033;-60
2023/09/21 17:07:06;;;;;;;2.28;0.38;;;;;;;19.22;100.00;98695.19;8311315;28;20033;-60
2023/09/21 17:11:06;;;;;;;6.15;0.70;;;;;;;19.21;100.00;98701.72;8319100;28;20136;-59
2023/09/21 17:15:08;;;;;;;1.05;0.50;;;;;;;19.09;100.00;98685.31;8318336;28;20410;-59
2023/09/21 17:19:09;;;;;;;1.58;0.40;;;;;;;19.07;100.00;98698.44;8317252;28;20045;-59
2023/09/21 17:23:10;;;;;;;0.90;0.43;;;;;;;18.97;100.00;98720.09;8318838;28;20128;-62
2023/09/21 17:27:11;;;;;;;3.03;0.52;;;;;;;18.86;100.00;98723.66;8317879;28;20136;-59
2023/09/21 17:31:12;;;;;;;0.47;0.43;;;;;;;18.75;100.00;98732.69;8318300;28;20037;-58
2023/09/21 17:35:13;;;;;;;1.23;0.70;;;;;;;18.73;100.00;98745.78;8317860;28;20041;-58
2023/09/21 17:39:14;;;;;;;0.93;0.45;;;;;;;18.64;100.00;98746.38;8318140;28;20061;-58
2023/09/21 17:43:15;;;;;;;1.25;0.50;;;;;;;18.62;100.00;98754.81;8316737;28;20491;-63
2023/09/21 17:47:15;;;;;;;2.80;0.60;;;;;;;18.55;100.00;98748.63;8318248;28;20155;-65
2023/09/21 17:51:16;;;;;;;0.70;0.50;;;;;;;18.50;100.00;98740.25;8315823;28;20036;-63
2023/09/21 17:55:17;;;;;;;1.45;0.50;;;;;;;18.46;100.00;98750.03;8318487;28;20044;-63
2023/09/21 17:59:17;;;;;;;1.42;0.50;;;;;;;18.38;100.00;98747.59;8316637;28;20518;-62
2023/09/21 18:03:18;;;;;;;4.13;0.70;;;;;;;18.27;100.00;98745.63;8316631;28;20403;-62
2023/09/21 18:07:19;;;;;;;2.50;0.65;;;;;;;18.22;100.00;98742.78;8317444;28;20037;-62
2023/09/21 18:11:20;;;;;;;0.93;0.50;;;;;;;18.18;100.00;98738.84;8317770;28;20088;-63
2023/09/21 18:15:20;;;;;;;1.48;0.60;;;;;;;18.03;100.00;98732.94;8315543;28;20049;-63
2023/09/21 18:19:21;;;;;;;0.88;0.50;;;;;;;18.00;100.00;98738.03;8310852;28;20041;-63
2023/09/21 18:23:22;;;;;;;1.98;0.70;;;;;;;18.04;100.00;98734.59;8307250;28;20069;-62
2023/09/21 18:27:22;;;;;;;1.67;0.70;;;;;;;18.09;100.00;98753.06;8308895;28;20033;-62
2023/09/21 18:31:24;;;;;;;5.05;2.47;;;;;;;18.13;100.00;98748.78;8310632;28;20195;-62
2023/09/21 18:35:25;;;;;;;1.10;0.60;;;;;;;18.00;100.00;98727.94;8310772;28;20419;-58
2023/09/21 18:39:26;;;;;;;1.65;0.60;;;;;;;17.92;100.00;98741.94;8313823;28;20157;-58
2023/09/21 18:43:29;;;;;;;2.75;0.90;;;;;;;17.59;100.00;98736.88;8315694;28;20037;-58
2023/09/21 18:47:29;;;;;;;2.17;1.05;;;;;;;17.49;100.00;98735.75;8315640;28;20326;-59
2023/09/21 18:51:30;;;;;;;0.63;0.50;;;;;;;17.52;100.00;98757.16;8315435;28;20099;-59
2023/09/21 18:55:31;;;;;;;1.90;0.80;;;;;;;17.51;100.00;98760.97;8315088;28;20057;-63
2023/09/21 18:59:31;;;;;;;1.35;0.73;;;;;;;17.49;100.00;98779.47;8314904;28;20045;-62